createdAt,value
2022-09-09T00:02:30.424Z,89.66
2022-09-09T00:07:41.946Z,90.52
2022-09-09T00:12:53.489Z,90.68
2022-09-09T00:18:00.162Z,91.49
2022-09-09T00:23:08.992Z,92.06
2022-09-09T00:28:19.501Z,93.88
2022-09-09T00:33:23.323Z,94.14
2022-09-09T00:38:29.840Z,94.20
2022-09-09T00:43:32.738Z,95.05
2022-09-09T00:48:42.746Z,94.79
2022-09-09T00:54:06.701Z,95.25
2022-09-09T00:59:19.223Z,95.02
2022-09-09T01:04:31.794Z,94.44
2022-09-09T01:09:44.446Z,94.12
2022-09-09T01:14:52.175Z,94.42
2022-09-09T01:20:03.651Z,94.73
2022-09-09T01:25:33.624Z,94.32
2022-09-09T01:30:45.007Z,93.14
2022-09-09T01:35:55.583Z,93.49
2022-09-09T01:40:59.939Z,93.18
2022-09-09T01:46:13.190Z,93.40
2022-09-09T01:51:15.477Z,92.94
2022-09-09T01:56:30.558Z,93.54
2022-09-09T02:01:47.943Z,94.13
2022-09-09T02:06:51.824Z,93.85
2022-09-09T02:12:08.131Z,93.99
2022-09-09T02:17:21.286Z,93.80
2022-09-09T02:22:35.076Z,94.45
2022-09-09T02:27:37.010Z,93.93
2022-09-09T02:32:41.814Z,93.48
2022-09-09T02:37:48.037Z,93.12
2022-09-09T02:42:51.327Z,93.73
2022-09-09T02:48:05.636Z,93.12
2022-09-09T02:53:16.391Z,93.39
2022-09-09T02:58:20.198Z,93.62
2022-09-09T03:03:40.837Z,93.59
2022-09-09T03:08:49.502Z,94.27
2022-09-09T03:13:56.936Z,93.87
2022-09-09T03:19:00.545Z,92.46
2022-09-09T03:24:04.276Z,93.49
2022-09-09T03:29:07.467Z,93.05
2022-09-09T03:34:10.345Z,93.24
2022-09-09T03:39:11.600Z,93.66
2022-09-09T03:44:15.544Z,93.06
2022-09-09T03:49:19.018Z,92.87
2022-09-09T03:54:20.735Z,94.13
2022-09-09T03:59:22.228Z,93.29
2022-09-09T04:04:24.315Z,94.22
2022-09-09T04:09:25.113Z,94.42
2022-09-09T04:14:29.723Z,94.23
2022-09-09T04:19:32.586Z,94.51
2022-09-09T04:24:33.251Z,94.72
2022-09-09T04:29:35.441Z,94.57
2022-09-09T04:34:38.316Z,95.06
2022-09-09T04:39:38.971Z,94.70
2022-09-09T04:44:41.776Z,94.63
2022-09-09T04:49:44.176Z,94.00
2022-09-09T04:54:45.895Z,92.88
2022-09-09T04:59:46.821Z,93.24
2022-09-09T05:04:50.510Z,92.68
2022-09-09T05:09:51.323Z,92.07
2022-09-09T05:14:52.643Z,91.24
2022-09-09T05:19:54.662Z,90.59
2022-09-09T05:24:55.315Z,90.40
2022-09-09T05:29:57.839Z,89.54
2022-09-09T05:34:59.968Z,89.16
2022-09-09T05:40:01.743Z,87.74
2022-09-09T05:45:02.534Z,87.26
2022-09-09T05:50:05.379Z,86.14
2022-09-09T05:55:07.328Z,84.93
2022-09-09T06:00:09.694Z,85.08
2022-09-09T06:05:16.168Z,83.02
2022-09-09T06:10:17.419Z,82.53
2022-09-09T06:15:18.350Z,81.98
2022-09-09T06:20:21.047Z,82.75
2022-09-09T06:25:21.938Z,82.18
2022-09-09T06:30:22.646Z,82.41
2022-09-09T06:35:25.081Z,82.80
2022-09-09T06:40:25.997Z,82.53
2022-09-09T06:45:27.425Z,82.49
2022-09-09T06:50:33.537Z,81.08
2022-09-09T06:55:34.375Z,79.71
2022-09-09T07:00:35.445Z,77.97
2022-09-09T07:05:38.079Z,76.93
2022-09-09T07:10:38.812Z,75.28
2022-09-09T07:15:40.035Z,73.75
2022-09-09T07:20:42.378Z,73.27
2022-09-09T07:25:47.149Z,72.34
2022-09-09T07:30:56.030Z,72.50
2022-09-09T07:36:05.627Z,71.70
2022-09-09T07:41:09.668Z,71.38
2022-09-09T07:46:11.451Z,71.99
2022-09-09T07:51:19.323Z,71.71
2022-09-09T07:56:20.846Z,71.48
2022-09-09T08:01:23.737Z,69.96
2022-09-09T08:06:25.946Z,68.68
2022-09-09T08:11:28.741Z,66.82
2022-09-09T08:16:32.005Z,65.90
2022-09-09T08:21:37.661Z,66.72
2022-09-09T08:26:40.633Z,70.59
2022-09-09T08:31:43.372Z,72.08
2022-09-09T08:36:47.745Z,71.19
2022-09-09T08:42:10.473Z,69.83
2022-09-09T08:47:23.896Z,68.40
2022-09-09T08:52:31.843Z,67.29
2022-09-09T08:57:34.269Z,65.67
2022-09-09T09:02:46.528Z,65.02
2022-09-09T09:08:01.164Z,64.15
2022-09-09T09:13:05.603Z,66.60
2022-09-09T09:18:07.599Z,67.20
2022-09-09T09:23:21.475Z,69.00
2022-09-09T09:28:26.754Z,72.43
2022-09-09T09:33:41.528Z,79.64
2022-09-09T09:44:30.565Z,86.83
2022-09-09T09:49:37.850Z,86.13
2022-09-09T09:54:44.148Z,86.66
2022-09-09T09:59:45.261Z,87.01
2022-09-09T10:05:03.299Z,84.71
2022-09-09T10:10:08.209Z,84.18
2022-09-09T10:15:25.168Z,83.72
2022-09-09T10:20:38.629Z,82.72
2022-09-09T10:25:57.394Z,81.11
2022-09-09T10:31:10.745Z,79.76
2022-09-09T10:36:15.798Z,79.50
2022-09-09T10:41:34.562Z,78.27
2022-09-09T10:46:54.513Z,76.80
2022-09-09T10:52:04.186Z,75.19
2022-09-09T10:57:15.205Z,72.64
2022-09-09T11:02:21.859Z,70.92
2022-09-09T11:07:30.105Z,69.26
2022-09-09T11:12:35.251Z,68.76
2022-09-09T11:17:44.382Z,68.01
2022-09-09T11:22:50.918Z,68.05
2022-09-09T11:28:13.437Z,68.94
2022-09-09T11:33:48.184Z,69.63
2022-09-09T11:38:52.689Z,71.75
2022-09-09T11:43:55.071Z,68.05
2022-09-09T11:49:01.671Z,65.44
2022-09-09T11:54:04.308Z,63.72
2022-09-09T11:59:08.295Z,65.92
2022-09-09T12:04:30.881Z,72.81
2022-09-09T12:09:47.469Z,75.56
2022-09-09T12:15:01.244Z,75.50
2022-09-09T12:20:07.049Z,70.18
2022-09-09T12:25:23.260Z,68.89
2022-09-09T12:30:31.861Z,68.03
2022-09-09T12:35:33.293Z,67.72
2022-09-09T12:40:36.469Z,67.05
2022-09-09T12:45:43.244Z,63.33
2022-09-09T12:50:47.340Z,60.95
2022-09-09T12:55:53.186Z,61.72
2022-09-09T13:00:57.423Z,61.18
2022-09-09T13:06:01.575Z,60.83
2022-09-09T13:11:06.145Z,60.01
2022-09-09T13:16:20.393Z,60.92
2022-09-09T13:21:21.672Z,58.04
2022-09-09T13:26:25.452Z,56.14
2022-09-09T13:31:32.735Z,52.99
2022-09-09T13:36:36.925Z,54.13
2022-09-09T13:41:45.185Z,54.73
2022-09-09T13:46:47.159Z,52.02
2022-09-09T13:51:51.571Z,53.25
2022-09-09T13:56:52.418Z,54.18
2022-09-09T14:01:54.733Z,53.42
2022-09-09T14:06:57.476Z,53.15
2022-09-09T14:11:58.613Z,54.38
2022-09-09T14:17:04.234Z,53.86
2022-09-09T14:22:08.095Z,52.53
2022-09-09T14:27:08.877Z,50.86
2022-09-09T14:32:12.881Z,49.96
2022-09-09T14:37:13.761Z,51.09
2022-09-09T14:42:15.813Z,51.23
2022-09-09T14:47:17.977Z,51.82
2022-09-09T14:52:18.633Z,51.90
2022-09-09T14:57:19.299Z,52.99
2022-09-09T15:02:21.376Z,54.58
2022-09-09T15:07:23.239Z,56.52
2022-09-09T15:12:23.858Z,53.91
2022-09-09T15:17:26.767Z,54.05
2022-09-09T15:22:27.656Z,55.37
2022-09-09T15:27:28.195Z,55.32
2022-09-09T15:32:30.180Z,55.84
2022-09-09T15:37:30.732Z,57.34
2022-09-09T15:42:31.550Z,60.05
2022-09-09T15:47:34.149Z,61.68
2022-09-09T15:52:34.762Z,63.86
2022-09-09T15:57:35.596Z,64.98
2022-09-09T16:02:38.074Z,63.93
2022-09-09T16:07:38.779Z,64.46
2022-09-09T16:12:40.454Z,65.52
2022-09-09T16:17:42.353Z,66.38
2022-09-09T16:22:43.112Z,66.83
2022-09-09T16:27:44.716Z,67.44
2022-09-09T16:32:46.625Z,66.42
2022-09-09T16:37:47.197Z,64.77
2022-09-09T16:42:47.755Z,63.40
2022-09-09T16:47:49.960Z,61.89
2022-09-09T16:52:50.522Z,61.71
2022-09-09T16:57:51.093Z,61.38
2022-09-09T17:02:53.052Z,61.86
2022-09-09T17:07:53.708Z,63.29
2022-09-09T17:12:54.302Z,64.47
2022-09-09T17:17:56.216Z,67.30
2022-09-09T17:22:57.196Z,69.76
2022-09-09T17:27:59.004Z,72.56
2022-09-09T17:33:00.957Z,73.86
2022-09-09T17:38:01.555Z,75.38
2022-09-09T17:43:02.412Z,76.25
2022-09-09T17:48:05.053Z,77.01
2022-09-09T17:53:05.644Z,78.51
2022-09-09T17:58:06.306Z,76.43
2022-09-09T18:03:08.482Z,78.73
2022-09-09T18:08:09.085Z,78.63
2022-09-09T18:13:10.019Z,78.88
2022-09-09T18:18:11.887Z,80.20
2022-09-09T18:23:12.599Z,81.09
2022-09-09T18:28:13.845Z,81.36
2022-09-09T18:33:15.889Z,82.23
2022-09-09T18:38:17.586Z,82.10
2022-09-09T18:43:18.703Z,82.39
2022-09-09T18:48:20.713Z,81.99
2022-09-09T18:53:23.154Z,82.85
2022-09-09T18:58:24.985Z,83.47
2022-09-09T19:03:28.393Z,83.41
2022-09-09T19:08:28.969Z,83.53
2022-09-09T19:13:29.792Z,84.23
2022-09-09T19:18:31.879Z,84.72
2022-09-09T19:23:33.006Z,84.72
2022-09-09T19:28:33.989Z,84.47
2022-09-09T19:33:37.025Z,84.64
2022-09-09T19:38:37.674Z,84.60
2022-09-09T19:43:38.810Z,83.78
2022-09-09T19:48:42.474Z,84.05
2022-09-09T19:53:45.330Z,84.54
2022-09-09T19:58:47.776Z,84.66
2022-09-09T20:03:52.301Z,85.74
2022-09-09T20:08:53.793Z,85.93
2022-09-09T20:13:55.153Z,86.13
2022-09-09T20:18:58.808Z,86.11
2022-09-09T20:24:01.487Z,85.53
2022-09-09T20:29:04.733Z,86.18
2022-09-09T20:34:08.895Z,85.58
2022-09-09T20:39:11.891Z,85.18
2022-09-09T20:44:15.483Z,85.30
2022-09-09T20:49:19.232Z,85.62
2022-09-09T20:54:21.284Z,85.86
2022-09-09T20:59:23.977Z,85.80
2022-09-09T21:04:26.290Z,86.19
2022-09-09T21:09:26.960Z,85.82
2022-09-09T21:14:28.277Z,86.36
2022-09-09T21:19:30.179Z,86.89
2022-09-09T21:24:30.882Z,86.67
2022-09-09T21:29:31.712Z,87.26
2022-09-09T21:34:34.910Z,86.32
2022-09-09T21:39:40.878Z,85.48
2022-09-09T21:44:42.076Z,85.66
2022-09-09T21:49:44.048Z,85.04
2022-09-09T21:54:44.653Z,84.84
2022-09-09T21:59:45.254Z,85.29
2022-09-09T22:04:47.161Z,85.47
2022-09-09T22:09:47.746Z,86.71
2022-09-09T22:14:48.695Z,87.63
2022-09-09T22:19:50.775Z,88.56
2022-09-09T22:24:51.922Z,88.60
2022-09-09T22:29:52.493Z,88.63
2022-09-09T22:34:54.452Z,88.75
2022-09-09T22:39:55.041Z,89.33
2022-09-09T22:44:55.613Z,89.66
2022-09-09T22:49:58.208Z,89.93
2022-09-09T22:54:59.469Z,90.80
2022-09-09T23:00:00.106Z,90.69
2022-09-09T23:05:04.352Z,90.65
2022-09-09T23:10:06.168Z,90.02
2022-09-09T23:15:10.405Z,90.03
2022-09-09T23:20:12.434Z,90.22
2022-09-09T23:25:13.096Z,90.93
2022-09-09T23:30:14.623Z,90.24
2022-09-09T23:35:16.830Z,90.53
2022-09-09T23:40:17.592Z,90.28
2022-09-09T23:45:18.455Z,90.30
2022-09-09T23:50:20.963Z,90.39
2022-09-09T23:55:22.029Z,90.72
